Lookout, California
Current Conditions -  °F | °C
As of 10:55 PM on Saturday 20 Dec 2014 (Local Time) from KAAT Reporting Station
Overcast Overcast  
Wind Chill: 43°   Ceiling: 2000
Heat Index: 43°   Visibility: 10mi
Dew Point: 39°   Wind: 3mph
Humidity: 86%   Direction: 220°SW
Pressure: 30.12"   Gusts: NA
Location:  41.21°N, 121.16°W
Report Text: KAAT 210655Z AUTO 22003KT 10SM OVC020 06/04 A3012 RMK AO2 SLP198 T00610039
Loading
Personal Weather Stations






























Interactive Weather Map New forecast layout! Learn more

10-Day Weather Forecast

Advertisements
Track Severe Weather on mobile